createdAt,value
2019-03-19T00:00:58.651Z,1014.61
2019-03-19T00:01:58.629Z,1014.59
2019-03-19T00:02:58.620Z,1014.59
2019-03-19T00:03:58.605Z,1014.56
2019-03-19T00:04:58.596Z,1014.54
2019-03-19T00:06:01.061Z,1014.61
2019-03-19T00:06:58.579Z,1014.58
2019-03-19T00:07:58.568Z,1014.55
2019-03-19T00:08:58.553Z,1014.55
2019-03-19T00:09:58.541Z,1014.58
2019-03-19T00:10:58.548Z,1014.52
2019-03-19T00:11:58.521Z,1014.52
2019-03-19T00:12:58.511Z,1014.57
2019-03-19T00:13:58.500Z,1014.55
2019-03-19T00:14:58.487Z,1014.58
2019-03-19T00:15:58.486Z,1014.58
2019-03-19T00:16:58.466Z,1014.59
2019-03-19T00:17:58.462Z,1014.62
2019-03-19T00:18:58.442Z,1014.61
2019-03-19T00:19:58.431Z,1014.58
2019-03-19T00:20:58.452Z,1014.63
2019-03-19T00:21:58.409Z,1014.65
2019-03-19T00:22:58.407Z,1014.62
2019-03-19T00:23:58.390Z,1014.60
2019-03-19T00:24:58.385Z,1014.57
2019-03-19T00:25:58.368Z,1014.61
2019-03-19T00:26:58.368Z,1014.66
2019-03-19T00:27:58.367Z,1014.64
2019-03-19T00:28:58.336Z,1014.64
2019-03-19T00:29:58.325Z,1014.62
2019-03-19T00:30:58.313Z,1014.62
2019-03-19T00:31:58.319Z,1014.59
2019-03-19T00:32:58.291Z,1014.67
2019-03-19T00:33:58.281Z,1014.72
2019-03-19T00:34:58.274Z,1014.65
2019-03-19T00:35:58.258Z,1014.72
2019-03-19T00:36:58.260Z,1014.71
2019-03-19T00:37:58.235Z,1014.75
2019-03-19T00:38:58.235Z,1014.81
2019-03-19T00:39:58.215Z,1014.66
2019-03-19T00:40:58.203Z,1014.73
2019-03-19T00:41:58.201Z,1014.77
2019-03-19T00:42:58.182Z,1014.78
2019-03-19T00:43:58.170Z,1014.74
2019-03-19T00:44:58.161Z,1014.76
2019-03-19T00:45:58.149Z,1014.76
2019-03-19T00:46:58.150Z,1014.76
2019-03-19T00:47:58.134Z,1014.78
2019-03-19T00:48:58.115Z,1014.76
2019-03-19T00:49:58.104Z,1014.74
2019-03-19T00:50:58.096Z,1014.81
2019-03-19T00:51:58.092Z,1014.78
2019-03-19T00:52:58.082Z,1014.71
2019-03-19T00:53:58.061Z,1014.72
2019-03-19T00:54:58.051Z,1014.69
2019-03-19T00:55:58.043Z,1014.72
2019-03-19T00:56:58.054Z,1014.72
2019-03-19T00:57:58.022Z,1014.73
2019-03-19T00:58:58.008Z,1014.80
2019-03-19T00:59:57.995Z,1014.74
2019-03-19T01:00:57.987Z,1014.76
2019-03-19T01:01:57.989Z,1014.73
2019-03-19T01:02:57.976Z,1014.75
2019-03-19T01:03:57.954Z,1014.76
2019-03-19T01:04:57.940Z,1014.75
2019-03-19T01:05:57.933Z,1014.70
2019-03-19T01:06:57.929Z,1014.80
2019-03-19T01:07:57.911Z,1014.73
2019-03-19T01:08:57.903Z,1014.72
2019-03-19T01:09:57.888Z,1014.81
2019-03-19T01:10:57.878Z,1014.77
2019-03-19T01:11:57.887Z,1014.76
2019-03-19T01:12:57.854Z,1014.76
2019-03-19T01:13:57.852Z,1014.88
2019-03-19T01:14:57.832Z,1014.73
2019-03-19T01:15:57.823Z,1014.88
2019-03-19T01:16:57.822Z,1014.80
2019-03-19T01:17:57.804Z,1014.85
2019-03-19T01:18:57.789Z,1014.86
2019-03-19T01:19:57.779Z,1014.83
2019-03-19T01:20:57.771Z,1014.85
2019-03-19T01:21:57.769Z,1014.79
2019-03-19T01:22:57.750Z,1014.87
2019-03-19T01:23:57.736Z,1014.81
2019-03-19T01:24:57.729Z,1014.81
2019-03-19T01:25:57.718Z,1014.88
2019-03-19T01:26:57.709Z,1014.78
2019-03-19T01:27:57.693Z,1014.88
2019-03-19T01:28:57.682Z,1014.88
2019-03-19T01:29:57.677Z,1014.92
2019-03-19T01:30:57.667Z,1014.92
2019-03-19T01:31:57.662Z,1014.95
2019-03-19T01:32:57.641Z,1014.91
2019-03-19T01:33:57.627Z,1014.94
2019-03-19T01:34:57.622Z,1014.95
2019-03-19T01:35:57.611Z,1014.97
2019-03-19T01:36:57.609Z,1015.00
2019-03-19T01:37:57.586Z,1014.99
2019-03-19T01:38:57.571Z,1015.00
2019-03-19T01:39:57.561Z,1015.04
2019-03-19T01:40:57.552Z,1015.02
2019-03-19T01:41:57.553Z,1015.05
2019-03-19T01:42:57.539Z,1014.99
2019-03-19T01:43:57.518Z,1015.02
2019-03-19T01:44:57.509Z,1015.03
2019-03-19T01:46:06.752Z,1015.11
2019-03-19T01:46:57.494Z,1015.06
2019-03-19T01:47:57.473Z,1015.10
2019-03-19T01:48:57.463Z,1015.16
2019-03-19T01:49:57.453Z,1015.22
2019-03-19T01:50:57.441Z,1015.16
2019-03-19T01:51:57.440Z,1015.19
2019-03-19T01:52:57.422Z,1015.20
2019-03-19T01:53:57.412Z,1015.28
2019-03-19T01:54:57.400Z,1015.17
2019-03-19T01:56:05.036Z,1015.23
2019-03-19T01:56:58.385Z,1015.21
2019-03-19T01:57:57.368Z,1015.31
2019-03-19T01:58:57.356Z,1015.25
2019-03-19T01:59:57.346Z,1015.29
2019-03-19T02:00:57.333Z,1015.30
2019-03-19T02:01:57.332Z,1015.36
2019-03-19T02:02:57.311Z,1015.34
2019-03-19T02:03:57.329Z,1015.35
2019-03-19T02:04:57.296Z,1015.30
2019-03-19T02:05:57.279Z,1015.40
2019-03-19T02:08:30.275Z,1015.30
2019-03-19T02:09:06.524Z,1015.31
2019-03-19T02:10:06.514Z,1015.33
2019-03-19T02:11:06.501Z,1015.37
2019-03-19T02:12:06.499Z,1015.43
2019-03-19T02:13:06.478Z,1015.43
2019-03-19T02:14:06.470Z,1015.43
2019-03-19T02:15:06.459Z,1015.42
2019-03-19T02:16:06.446Z,1015.43
2019-03-19T02:17:06.445Z,1015.47
2019-03-19T02:18:06.437Z,1015.40
2019-03-19T02:19:06.416Z,1015.51
2019-03-19T02:20:06.409Z,1015.44
2019-03-19T02:21:06.394Z,1015.43
2019-03-19T02:22:06.396Z,1015.45
2019-03-19T02:23:06.382Z,1015.42
2019-03-19T02:24:06.360Z,1015.47
2019-03-19T02:25:06.351Z,1015.51
2019-03-19T02:26:15.850Z,1015.58
2019-03-19T02:27:07.338Z,1015.55
2019-03-19T02:28:06.320Z,1015.63
2019-03-19T02:29:06.310Z,1015.54
2019-03-19T02:30:06.298Z,1015.54
2019-03-19T02:31:06.287Z,1015.60
2019-03-19T02:32:06.284Z,1015.58
2019-03-19T02:33:06.355Z,1015.59
2019-03-19T02:34:06.258Z,1015.58
2019-03-19T02:35:06.248Z,1015.67
2019-03-19T02:36:06.238Z,1015.72
2019-03-19T02:37:06.245Z,1015.61
2019-03-19T02:38:06.221Z,1015.70
2019-03-19T02:39:06.216Z,1015.68
2019-03-19T02:40:06.193Z,1015.70
2019-03-19T02:41:06.183Z,1015.69
2019-03-19T02:42:06.211Z,1015.71
2019-03-19T02:43:06.169Z,1015.66
2019-03-19T02:44:06.150Z,1015.70
2019-03-19T02:45:06.141Z,1015.67
2019-03-19T02:46:06.136Z,1015.74
2019-03-19T02:47:06.122Z,1015.78
2019-03-19T02:48:06.118Z,1015.71
2019-03-19T02:49:06.153Z,1015.68
2019-03-19T02:50:06.089Z,1015.67
2019-03-19T02:51:06.104Z,1015.69
2019-03-19T02:52:06.069Z,1015.71
2019-03-19T02:53:06.063Z,1015.71
2019-03-19T02:54:06.043Z,1015.79
2019-03-19T02:55:06.032Z,1015.74
2019-03-19T02:56:06.028Z,1015.75
2019-03-19T02:57:06.013Z,1015.72
2019-03-19T02:58:06.011Z,1015.75
2019-03-19T02:59:05.991Z,1015.82
2019-03-19T03:00:05.979Z,1015.76
2019-03-19T03:01:05.969Z,1015.81
2019-03-19T03:02:05.962Z,1015.79
2019-03-19T03:03:05.961Z,1015.89
2019-03-19T03:04:05.935Z,1015.94
2019-03-19T03:05:05.925Z,1015.96
2019-03-19T03:06:05.918Z,1016.00
2019-03-19T03:07:05.903Z,1015.95
2019-03-19T03:08:05.902Z,1016.00
2019-03-19T03:09:05.881Z,1015.93
2019-03-19T03:10:05.909Z,1015.93
2019-03-19T03:11:05.878Z,1015.88
2019-03-19T03:12:05.855Z,1015.90
2019-03-19T03:13:05.850Z,1015.89
2019-03-19T03:14:05.832Z,1015.93
2019-03-19T03:15:05.817Z,1015.92
2019-03-19T03:16:05.807Z,1015.94
2019-03-19T03:17:05.797Z,1015.94
2019-03-19T03:18:05.797Z,1015.97
2019-03-19T03:19:05.779Z,1015.92
2019-03-19T03:20:05.773Z,1015.95
2019-03-19T03:21:05.754Z,1015.95
2019-03-19T03:22:05.751Z,1016.01
2019-03-19T03:23:05.742Z,1016.05
2019-03-19T03:24:05.724Z,1016.02
2019-03-19T03:25:05.722Z,1016.01
2019-03-19T03:26:05.700Z,1015.99
2019-03-19T03:27:05.695Z,1016.06
2019-03-19T03:28:05.688Z,1016.00
2019-03-19T03:29:05.692Z,1016.03
2019-03-19T03:30:05.661Z,1016.09
2019-03-19T03:31:05.656Z,1016.08
2019-03-19T03:32:05.643Z,1016.11
2019-03-19T03:33:05.650Z,1016.08
2019-03-19T03:34:05.615Z,1016.08
2019-03-19T03:35:05.605Z,1016.10
2019-03-19T03:36:05.592Z,1016.11
2019-03-19T03:37:05.598Z,1016.09
2019-03-19T03:38:05.583Z,1016.16
2019-03-19T03:39:05.562Z,1016.15
2019-03-19T03:40:05.559Z,1016.09
2019-03-19T03:41:05.542Z,1016.12
2019-03-19T03:42:05.564Z,1016.06
2019-03-19T03:43:05.544Z,1016.07
2019-03-19T03:44:05.510Z,1016.07
2019-03-19T03:45:05.547Z,1016.11
2019-03-19T03:46:05.490Z,1016.10
2019-03-19T03:47:05.495Z,1016.11
2019-03-19T03:48:05.475Z,1016.19
2019-03-19T03:49:05.459Z,1016.18
2019-03-19T03:50:05.458Z,1016.16
2019-03-19T03:51:05.435Z,1016.22
2019-03-19T03:52:05.426Z,1016.18
2019-03-19T03:53:05.421Z,1016.21
2019-03-19T03:54:05.417Z,1016.15
2019-03-19T03:55:05.392Z,1016.16
2019-03-19T03:56:05.383Z,1016.16
2019-03-19T03:57:05.370Z,1016.25
2019-03-19T03:58:05.377Z,1016.29
2019-03-19T03:59:05.351Z,1016.29
2019-03-19T04:00:05.339Z,1016.36
2019-03-19T04:01:05.328Z,1016.29
2019-03-19T04:02:05.317Z,1016.26
2019-03-19T04:03:05.316Z,1016.42
2019-03-19T04:04:05.301Z,1016.30
2019-03-19T04:05:05.285Z,1016.43
2019-03-19T04:06:05.281Z,1016.37
2019-03-19T04:07:05.373Z,1016.38
2019-03-19T04:08:05.274Z,1016.40
2019-03-19T04:09:08.864Z,1016.40
2019-03-19T04:10:05.230Z,1016.43
2019-03-19T04:11:05.222Z,1016.46
2019-03-19T04:12:05.222Z,1016.43
2019-03-19T04:13:05.217Z,1016.46
2019-03-19T04:14:05.283Z,1016.51
2019-03-19T04:15:05.209Z,1016.44
2019-03-19T04:16:05.168Z,1016.60
2019-03-19T04:17:05.157Z,1016.57
2019-03-19T04:18:05.157Z,1016.56
2019-03-19T04:19:05.138Z,1016.59
2019-03-19T04:20:05.126Z,1016.56
2019-03-19T04:21:05.118Z,1016.61
2019-03-19T04:22:05.111Z,1016.64
2019-03-19T04:23:05.107Z,1016.75
2019-03-19T04:24:05.099Z,1016.67
2019-03-19T04:25:05.071Z,1016.74
2019-03-19T04:26:05.061Z,1016.74
2019-03-19T04:27:15.435Z,1016.79
2019-03-19T04:28:06.046Z,1016.82
2019-03-19T04:29:05.030Z,1016.85
2019-03-19T04:30:05.030Z,1016.84
2019-03-19T04:31:05.018Z,1016.83
2019-03-19T04:32:05.038Z,1016.86
2019-03-19T04:33:04.997Z,1016.80
2019-03-19T04:34:04.976Z,1016.84
2019-03-19T04:35:04.964Z,1016.86
2019-03-19T04:36:04.955Z,1016.83
2019-03-19T04:37:04.944Z,1016.81
2019-03-19T04:38:04.943Z,1016.87
2019-03-19T04:39:04.922Z,1016.91
2019-03-19T04:40:04.913Z,1016.90
2019-03-19T04:41:04.913Z,1016.88
2019-03-19T04:42:04.894Z,1016.92
2019-03-19T04:43:04.895Z,1016.91
2019-03-19T04:44:04.871Z,1016.94
2019-03-19T04:45:04.860Z,1016.96
2019-03-19T04:46:04.848Z,1016.99
2019-03-19T04:47:04.841Z,1016.98
2019-03-19T04:48:04.849Z,1017.01
2019-03-19T04:49:04.816Z,1017.00
2019-03-19T04:50:04.804Z,1016.95
2019-03-19T04:51:04.795Z,1017.03
2019-03-19T04:52:04.787Z,1017.00
2019-03-19T04:53:04.831Z,1017.07
2019-03-19T04:54:04.771Z,1017.06
2019-03-19T04:55:04.761Z,1017.07
2019-03-19T04:56:04.742Z,1017.06
2019-03-19T04:57:04.730Z,1017.07
2019-03-19T04:58:04.720Z,1017.05
2019-03-19T04:59:04.718Z,1017.02
2019-03-19T05:00:04.699Z,1017.13
2019-03-19T05:01:04.691Z,1017.07
2019-03-19T05:02:04.680Z,1017.07
2019-03-19T05:03:04.666Z,1017.11
2019-03-19T05:04:04.666Z,1017.11
2019-03-19T05:05:04.646Z,1017.14
2019-03-19T05:06:04.634Z,1017.23
2019-03-19T05:07:04.623Z,1017.17
2019-03-19T05:08:04.613Z,1017.19
2019-03-19T05:09:04.610Z,1017.14
2019-03-19T05:10:04.592Z,1017.18
2019-03-19T05:11:04.579Z,1017.21
2019-03-19T05:12:04.569Z,1017.25
2019-03-19T05:13:04.557Z,1017.27
2019-03-19T05:14:04.557Z,1017.28
2019-03-19T05:15:04.540Z,1017.28
2019-03-19T05:16:04.526Z,1017.34
2019-03-19T05:17:04.521Z,1017.35
2019-03-19T05:18:04.508Z,1017.38
2019-03-19T05:19:04.503Z,1017.39
2019-03-19T05:20:04.486Z,1017.39
2019-03-19T05:21:04.476Z,1017.44
2019-03-19T05:22:04.463Z,1017.45
2019-03-19T05:23:04.453Z,1017.47
2019-03-19T05:24:04.454Z,1017.50
2019-03-19T05:25:04.436Z,1017.46
2019-03-19T05:26:04.420Z,1017.56
2019-03-19T05:27:04.412Z,1017.51
2019-03-19T05:28:04.405Z,1017.56
2019-03-19T05:29:04.397Z,1017.59
2019-03-19T05:30:04.377Z,1017.70
2019-03-19T05:31:04.365Z,1017.61
2019-03-19T05:32:04.357Z,1017.67
2019-03-19T05:33:04.345Z,1017.70
2019-03-19T05:34:04.343Z,1017.67
2019-03-19T05:35:04.323Z,1017.67
2019-03-19T05:36:04.317Z,1017.78
2019-03-19T05:37:04.308Z,1017.79
2019-03-19T05:38:04.294Z,1017.79
2019-03-19T05:39:04.291Z,1017.81
2019-03-19T05:40:04.271Z,1017.79
2019-03-19T05:41:04.263Z,1017.80
2019-03-19T05:42:04.273Z,1017.81
2019-03-19T05:43:04.237Z,1017.83
2019-03-19T05:44:04.239Z,1017.86
2019-03-19T05:45:04.217Z,1017.90
2019-03-19T05:46:04.207Z,1017.88
2019-03-19T05:47:04.197Z,1017.86
2019-03-19T05:48:04.186Z,1017.96
2019-03-19T05:49:04.187Z,1017.91
2019-03-19T05:50:04.169Z,1017.95
2019-03-19T05:51:04.154Z,1017.93
2019-03-19T05:52:04.143Z,1018.00
2019-03-19T05:53:04.133Z,1017.99
2019-03-19T05:54:04.132Z,1017.95
2019-03-19T05:55:04.113Z,1017.98
2019-03-19T05:56:04.102Z,1017.92
2019-03-19T05:57:04.090Z,1018.00
2019-03-19T05:58:04.078Z,1018.05
2019-03-19T05:59:04.079Z,1017.99
2019-03-19T06:00:04.056Z,1018.09
2019-03-19T06:01:04.046Z,1018.02
2019-03-19T06:02:04.035Z,1018.06
2019-03-19T06:03:04.024Z,1018.04
2019-03-19T06:04:04.024Z,1018.06
2019-03-19T06:05:04.008Z,1018.08
2019-03-19T06:06:03.996Z,1018.15
2019-03-19T06:07:03.982Z,1018.15
2019-03-19T06:08:03.973Z,1018.20
2019-03-19T06:09:03.971Z,1018.18
2019-03-19T06:10:03.953Z,1018.20
2019-03-19T06:11:03.939Z,1018.29
2019-03-19T06:12:03.937Z,1018.20
2019-03-19T06:13:03.918Z,1018.23
2019-03-19T06:14:03.917Z,1018.27
2019-03-19T06:15:03.901Z,1018.29
2019-03-19T06:16:03.885Z,1018.27
2019-03-19T06:17:03.875Z,1018.30
2019-03-19T06:18:03.864Z,1018.31
2019-03-19T06:19:03.866Z,1018.24
2019-03-19T06:20:03.856Z,1018.22
2019-03-19T06:21:03.835Z,1018.37
2019-03-19T06:22:03.826Z,1018.32
2019-03-19T06:23:03.811Z,1018.34
2019-03-19T06:24:03.810Z,1018.29
2019-03-19T06:25:03.792Z,1018.31
2019-03-19T06:26:03.784Z,1018.31
2019-03-19T06:27:03.768Z,1018.36
2019-03-19T06:28:03.757Z,1018.40
2019-03-19T06:29:03.756Z,1018.32
2019-03-19T06:30:03.736Z,1018.38
2019-03-19T06:31:03.726Z,1018.45
2019-03-19T06:32:03.722Z,1018.46
2019-03-19T06:33:03.704Z,1018.41
2019-03-19T06:34:03.702Z,1018.40
2019-03-19T06:35:03.683Z,1018.50
2019-03-19T06:36:03.676Z,1018.46
2019-03-19T06:37:03.663Z,1018.55
2019-03-19T06:38:03.649Z,1018.53
2019-03-19T06:39:03.653Z,1018.49
2019-03-19T06:40:03.650Z,1018.52
2019-03-19T06:41:03.618Z,1018.56
2019-03-19T06:42:03.610Z,1018.55
2019-03-19T06:43:03.601Z,1018.57
2019-03-19T06:44:03.598Z,1018.60
2019-03-19T06:45:03.582Z,1018.56
2019-03-19T06:46:03.566Z,1018.63
2019-03-19T06:47:03.552Z,1018.56
2019-03-19T06:48:03.544Z,1018.58
2019-03-19T06:49:03.541Z,1018.60
2019-03-19T06:50:03.523Z,1018.60
2019-03-19T06:51:03.510Z,1018.55
2019-03-19T06:52:03.503Z,1018.57
2019-03-19T06:53:03.496Z,1018.61
2019-03-19T06:54:03.490Z,1018.60
2019-03-19T06:55:03.469Z,1018.57
2019-03-19T06:56:03.458Z,1018.49
2019-03-19T06:57:03.448Z,1018.57
2019-03-19T06:58:11.002Z,1018.55
2019-03-19T06:59:04.437Z,1018.52
2019-03-19T07:00:03.417Z,1018.49
2019-03-19T07:01:03.407Z,1018.60
2019-03-19T07:02:03.413Z,1018.57
2019-03-19T07:03:03.386Z,1018.63
2019-03-19T07:04:03.382Z,1018.63
2019-03-19T07:05:03.364Z,1018.58
2019-03-19T07:06:03.352Z,1018.68
2019-03-19T07:07:03.345Z,1018.63
2019-03-19T07:08:03.332Z,1018.60
2019-03-19T07:09:03.335Z,1018.66
2019-03-19T07:10:03.312Z,1018.73
2019-03-19T07:11:03.299Z,1018.78
2019-03-19T07:12:03.287Z,1018.78
2019-03-19T07:13:03.278Z,1018.81
2019-03-19T07:14:03.306Z,1018.75
2019-03-19T07:15:03.259Z,1018.79
2019-03-19T07:16:03.252Z,1018.76
2019-03-19T07:17:03.237Z,1018.75
2019-03-19T07:18:03.224Z,1018.79
2019-03-19T07:19:03.218Z,1018.79
2019-03-19T07:20:03.220Z,1018.78
2019-03-19T07:21:03.195Z,1018.82
2019-03-19T07:22:03.180Z,1018.90
2019-03-19T07:23:03.170Z,1018.89
2019-03-19T07:24:03.158Z,1018.83
2019-03-19T07:25:03.157Z,1019.00
2019-03-19T07:26:03.142Z,1018.85
2019-03-19T07:27:03.129Z,1018.77
2019-03-19T07:28:03.120Z,1018.82
2019-03-19T07:29:03.112Z,1018.89
2019-03-19T07:30:03.108Z,1019.15
2019-03-19T07:31:03.089Z,1018.92
2019-03-19T07:32:03.074Z,1018.98
2019-03-19T07:33:03.071Z,1019.12
2019-03-19T07:34:03.057Z,1019.19
2019-03-19T07:35:03.050Z,1018.95
2019-03-19T07:36:03.036Z,1019.25
2019-03-19T07:37:03.018Z,1019.26
2019-03-19T07:38:03.014Z,1019.17
2019-03-19T07:39:02.998Z,1018.99
2019-03-19T07:40:02.996Z,1019.00
2019-03-19T07:41:02.977Z,1019.19
2019-03-19T07:42:02.969Z,1019.08
2019-03-19T07:43:02.954Z,1019.23
2019-03-19T07:44:02.946Z,1019.08
2019-03-19T07:45:02.963Z,1019.37
2019-03-19T07:46:02.924Z,1019.08
2019-03-19T07:47:02.914Z,1019.14
2019-03-19T07:48:02.901Z,1019.23
2019-03-19T07:49:02.889Z,1019.21
2019-03-19T07:50:02.894Z,1019.34
2019-03-19T07:51:02.870Z,1019.22
2019-03-19T07:52:02.857Z,1019.21
2019-03-19T07:53:02.850Z,1019.29
2019-03-19T07:54:02.837Z,1019.72
2019-03-19T07:55:02.837Z,1019.73
2019-03-19T07:56:02.822Z,1019.82
2019-03-19T07:57:02.803Z,1019.84
2019-03-19T07:58:02.792Z,1019.79
2019-03-19T07:59:02.783Z,1019.71
2019-03-19T08:00:02.783Z,1019.47
2019-03-19T08:01:02.762Z,1019.43
2019-03-19T08:02:02.756Z,1019.60
2019-03-19T08:03:02.740Z,1019.53
2019-03-19T08:04:04.959Z,1019.41
2019-03-19T08:05:02.727Z,1019.50
2019-03-19T08:06:02.747Z,1019.48
2019-03-19T08:07:02.699Z,1019.88
2019-03-19T08:08:02.688Z,1019.76
2019-03-19T08:09:02.678Z,1019.50
2019-03-19T08:10:02.684Z,1019.91
2019-03-19T08:11:02.653Z,1019.95
2019-03-19T08:12:02.657Z,1019.85
2019-03-19T08:13:02.637Z,1019.73
2019-03-19T08:14:02.624Z,1019.69
2019-03-19T08:15:02.620Z,1020.14
2019-03-19T08:16:02.598Z,1020.08
2019-03-19T08:17:11.832Z,1019.75
2019-03-19T08:18:02.577Z,1020.11
2019-03-19T08:19:02.567Z,1020.09
2019-03-19T08:20:02.570Z,1020.10
2019-03-19T08:21:02.549Z,1019.95
2019-03-19T08:22:02.535Z,1019.81
2019-03-19T08:23:02.526Z,1019.78
2019-03-19T08:24:02.513Z,1019.73
2019-03-19T08:25:02.512Z,1019.75
2019-03-19T08:26:02.494Z,1019.78
2019-03-19T08:27:02.480Z,1019.73
2019-03-19T08:28:02.472Z,1020.17
2019-03-19T08:29:02.461Z,1020.26
2019-03-19T08:30:02.460Z,1020.28
2019-03-19T08:31:02.444Z,1020.35
2019-03-19T08:32:02.431Z,1020.34
2019-03-19T08:33:02.461Z,1020.44
2019-03-19T08:34:02.406Z,1020.53
2019-03-19T08:35:02.405Z,1020.53
2019-03-19T08:36:09.268Z,1020.52
2019-03-19T08:37:03.373Z,1020.63
2019-03-19T08:38:02.381Z,1020.60
2019-03-19T08:39:02.354Z,1020.14
2019-03-19T08:40:02.356Z,1020.14
2019-03-19T08:41:02.343Z,1020.10
2019-03-19T08:42:02.325Z,1019.99
2019-03-19T08:43:02.318Z,1020.08
2019-03-19T08:44:02.304Z,1020.11
2019-03-19T08:45:02.299Z,1020.01
2019-03-19T08:46:02.303Z,1020.10
2019-03-19T08:47:02.271Z,1020.44
2019-03-19T08:48:02.263Z,1019.99
2019-03-19T08:49:02.273Z,1020.03
2019-03-19T08:50:02.245Z,1020.46
2019-03-19T08:51:02.227Z,1020.01
2019-03-19T08:52:02.217Z,1020.13
2019-03-19T08:53:02.206Z,1020.53
2019-03-19T08:54:02.207Z,1020.12
2019-03-19T08:55:02.199Z,1019.96
2019-03-19T08:56:02.173Z,1019.94
2019-03-19T08:57:02.162Z,1019.90
2019-03-19T08:58:02.152Z,1019.95
2019-03-19T08:59:05.766Z,1020.40
2019-03-19T09:00:02.147Z,1020.59
2019-03-19T09:01:02.130Z,1020.52
2019-03-19T09:02:02.110Z,1020.57
2019-03-19T09:03:02.111Z,1020.60
2019-03-19T09:04:02.096Z,1020.46
2019-03-19T09:05:03.144Z,1020.63
2019-03-19T09:06:02.074Z,1020.61
2019-03-19T09:07:02.059Z,1020.65
2019-03-19T09:08:02.049Z,1020.71
2019-03-19T09:09:02.036Z,1020.64
2019-03-19T09:10:02.037Z,1020.17
2019-03-19T09:11:02.017Z,1020.13
2019-03-19T09:12:02.013Z,1020.13
2019-03-19T09:13:01.995Z,1020.14
2019-03-19T09:14:01.986Z,1020.32
2019-03-19T09:15:01.985Z,1020.53
2019-03-19T09:16:01.994Z,1020.52
2019-03-19T09:17:01.955Z,1020.20
2019-03-19T09:18:01.945Z,1020.18
2019-03-19T09:19:01.942Z,1020.16
2019-03-19T09:20:01.933Z,1020.19
2019-03-19T09:21:01.913Z,1020.17
2019-03-19T09:22:01.923Z,1020.18
2019-03-19T09:23:01.890Z,1020.13
2019-03-19T09:24:01.884Z,1020.16
2019-03-19T09:25:01.909Z,1020.16
2019-03-19T09:26:01.869Z,1020.11
2019-03-19T09:27:01.858Z,1020.17
2019-03-19T09:28:01.837Z,1020.15
2019-03-19T09:29:01.831Z,1020.38
2019-03-19T09:30:01.823Z,1020.35
2019-03-19T09:31:01.837Z,1020.13
2019-03-19T09:32:01.795Z,1020.16
2019-03-19T09:33:01.787Z,1020.20
2019-03-19T09:34:01.776Z,1020.20
2019-03-19T09:35:01.775Z,1020.15
2019-03-19T09:36:01.763Z,1020.21
2019-03-19T09:37:01.743Z,1020.22
2019-03-19T09:38:01.730Z,1020.20
2019-03-19T09:39:01.726Z,1020.24
2019-03-19T09:40:01.718Z,1020.31
2019-03-19T09:41:01.709Z,1020.34
2019-03-19T09:42:01.689Z,1020.31
2019-03-19T09:43:01.687Z,1020.31
2019-03-19T09:44:01.666Z,1020.35
2019-03-19T09:45:01.659Z,1020.37
2019-03-19T09:46:01.656Z,1020.26
2019-03-19T09:47:01.633Z,1020.26
2019-03-19T09:48:01.630Z,1020.25
2019-03-19T09:49:01.611Z,1020.25
2019-03-19T09:50:01.610Z,1020.25
2019-03-19T09:51:01.604Z,1020.20
2019-03-19T09:52:01.583Z,1020.22
2019-03-19T09:53:01.570Z,1020.21
2019-03-19T09:54:01.561Z,1020.23
2019-03-19T09:55:01.548Z,1020.24
2019-03-19T09:56:01.545Z,1020.28
2019-03-19T09:57:01.527Z,1020.24
2019-03-19T09:58:01.516Z,1020.28
2019-03-19T09:59:01.510Z,1020.24
2019-03-19T10:00:01.495Z,1020.23
2019-03-19T10:01:01.494Z,1020.26
2019-03-19T10:02:01.474Z,1020.24
2019-03-19T10:03:01.464Z,1020.25
2019-03-19T10:04:01.452Z,1020.28
2019-03-19T10:05:01.442Z,1020.19
2019-03-19T10:06:12.638Z,1020.27
2019-03-19T10:07:06.238Z,1020.30
2019-03-19T10:08:01.409Z,1020.33
2019-03-19T10:09:01.399Z,1020.36
2019-03-19T10:10:01.388Z,1020.38
2019-03-19T10:11:01.387Z,1020.32
2019-03-19T10:12:01.382Z,1020.31
2019-03-19T10:13:01.355Z,1020.39
2019-03-19T10:14:01.349Z,1020.32
2019-03-19T10:15:01.341Z,1020.32
2019-03-19T10:16:01.339Z,1020.32
2019-03-19T10:17:01.313Z,1020.42
2019-03-19T10:18:01.300Z,1020.43
2019-03-19T10:19:01.289Z,1020.43
2019-03-19T10:20:01.289Z,1020.40
2019-03-19T10:21:01.281Z,1020.37
2019-03-19T10:22:01.272Z,1020.40
2019-03-19T10:23:01.261Z,1020.31
2019-03-19T10:24:01.238Z,1020.40
2019-03-19T10:25:01.240Z,1020.46
2019-03-19T10:26:01.224Z,1020.50
2019-03-19T10:27:01.203Z,1020.49
2019-03-19T10:28:01.194Z,1020.47
2019-03-19T10:29:01.205Z,1020.52
2019-03-19T10:30:01.171Z,1020.54
2019-03-19T10:31:01.173Z,1020.56
2019-03-19T10:32:01.153Z,1020.59
2019-03-19T10:33:01.182Z,1020.55
2019-03-19T10:34:01.128Z,1020.49
2019-03-19T10:35:01.119Z,1020.55
2019-03-19T10:36:01.122Z,1020.61
2019-03-19T10:37:01.097Z,1020.61
2019-03-19T10:38:01.084Z,1020.53
2019-03-19T10:39:01.074Z,1020.56
2019-03-19T10:40:01.066Z,1020.49
2019-03-19T10:41:01.067Z,1020.53
2019-03-19T10:42:01.043Z,1020.58
2019-03-19T10:43:01.030Z,1020.54
2019-03-19T10:44:01.020Z,1020.57
2019-03-19T10:45:01.008Z,1020.50
2019-03-19T10:46:01.007Z,1020.62
2019-03-19T10:47:00.987Z,1020.61
2019-03-19T10:48:00.977Z,1020.55
2019-03-19T10:49:00.970Z,1020.53
2019-03-19T10:50:00.960Z,1020.53
2019-03-19T10:51:00.959Z,1020.54
2019-03-19T10:52:00.933Z,1020.55
2019-03-19T10:53:00.925Z,1020.57
2019-03-19T10:54:00.924Z,1020.58
2019-03-19T10:55:00.908Z,1020.58
2019-03-19T10:56:00.906Z,1020.55
2019-03-19T10:57:00.881Z,1020.51
2019-03-19T10:58:10.565Z,1020.48
2019-03-19T10:59:01.861Z,1020.49
2019-03-19T11:00:00.910Z,1020.49
2019-03-19T11:01:01.173Z,1020.54
2019-03-19T11:02:00.825Z,1020.44
2019-03-19T11:03:00.816Z,1020.41
2019-03-19T11:04:00.808Z,1020.43
2019-03-19T11:05:00.798Z,1020.45
2019-03-19T11:06:00.797Z,1020.37
2019-03-19T11:07:00.786Z,1020.42
2019-03-19T11:08:00.760Z,1020.46
2019-03-19T11:09:00.762Z,1020.53
2019-03-19T11:10:00.743Z,1020.49
2019-03-19T11:11:00.745Z,1020.59
2019-03-19T11:12:00.726Z,1020.54
2019-03-19T11:13:00.709Z,1020.56
2019-03-19T11:14:00.697Z,1020.55
2019-03-19T11:15:00.685Z,1020.59
2019-03-19T11:16:00.682Z,1020.58
2019-03-19T11:17:00.666Z,1020.57
2019-03-19T11:18:00.656Z,1020.59
2019-03-19T11:19:00.642Z,1020.58
2019-03-19T11:20:01.109Z,1020.50
2019-03-19T11:21:00.886Z,1020.60
2019-03-19T11:22:00.815Z,1020.56
2019-03-19T11:23:01.804Z,1020.58
2019-03-19T11:24:00.843Z,1020.50
2019-03-19T11:25:00.581Z,1020.60
2019-03-19T11:26:00.581Z,1020.53
2019-03-19T11:27:00.557Z,1020.60
2019-03-19T11:28:00.558Z,1020.64
2019-03-19T11:29:00.542Z,1020.63
2019-03-19T11:30:00.558Z,1020.66
2019-03-19T11:31:00.535Z,1020.64
2019-03-19T11:32:00.503Z,1020.69
2019-03-19T11:33:00.492Z,1020.64
2019-03-19T11:34:01.400Z,1020.62
2019-03-19T11:35:00.497Z,1020.69
2019-03-19T11:36:00.468Z,1020.66
2019-03-19T11:37:00.449Z,1020.69
2019-03-19T11:38:00.512Z,1020.73
2019-03-19T11:39:00.426Z,1020.69
2019-03-19T11:40:00.485Z,1020.74
2019-03-19T11:41:00.410Z,1020.74
2019-03-19T11:42:00.405Z,1020.79
2019-03-19T11:43:00.417Z,1020.74
2019-03-19T11:44:00.377Z,1020.77
2019-03-19T11:45:00.376Z,1020.76
2019-03-19T11:46:00.476Z,1020.74
2019-03-19T11:47:00.351Z,1020.75
2019-03-19T11:48:00.331Z,1020.74
2019-03-19T11:49:00.319Z,1020.70
2019-03-19T11:50:00.412Z,1020.71
2019-03-19T11:51:00.483Z,1020.76
2019-03-19T11:52:00.299Z,1020.72
2019-03-19T11:53:00.275Z,1020.71
2019-03-19T11:54:00.264Z,1020.75
2019-03-19T11:55:00.355Z,1020.71
2019-03-19T11:56:00.245Z,1020.73
2019-03-19T11:57:00.245Z,1020.74
2019-03-19T11:58:00.228Z,1020.79
2019-03-19T11:59:00.219Z,1020.69
2019-03-19T12:00:10.441Z,1020.70
2019-03-19T12:01:01.187Z,1020.70
2019-03-19T12:02:00.196Z,1020.72
2019-03-19T12:03:10.872Z,1020.77
2019-03-19T12:04:01.157Z,1020.72
2019-03-19T12:05:00.331Z,1020.65
2019-03-19T12:06:00.182Z,1020.77
2019-03-19T12:07:00.134Z,1020.73